Aviation Digital Data Service (ADDS)

Output produced by METARs form (1122 UTC 11 May 2021)
found at http://www.aviationweather.gov/metar/data/
 
Forecast for: LROP (BUCHAREST/OTOPEN, RO)
Text: TAF LROP 110500Z 1106/1206 09006KT CAVOK
Forecast period: 0600 UTC 11 May 2021 to 0600 UTC 12 May 2021
Forecast type: FROM: standard forecast or significant change
Winds: from the E (90 degrees) at 7 MPH (6 knots; 3.1 m/s)
Visibility: 6 or more miles (10+ km)
Ceiling: unknown
Clouds: missing
Weather: NSW  (no significant weather)